createdAt,value
2023-03-05T00:02:42.634Z,0.90
2023-03-05T00:05:27.266Z,1.10
2023-03-05T00:08:12.043Z,1.20
2023-03-05T00:11:01.769Z,0.85
2023-03-05T00:13:47.072Z,0.95
2023-03-05T00:16:32.117Z,0.73
2023-03-05T00:19:16.644Z,0.98
2023-03-05T00:22:01.534Z,1.00
2023-03-05T00:24:50.414Z,0.93
2023-03-05T00:27:35.111Z,0.80
2023-03-05T00:30:19.969Z,1.05
2023-03-05T00:33:04.979Z,0.90
2023-03-05T00:35:49.422Z,0.90
2023-03-05T00:41:20.577Z,0.80
2023-03-05T00:44:05.199Z,0.80
2023-03-05T00:46:49.930Z,0.70
2023-03-05T00:49:35.016Z,0.93
2023-03-05T00:52:19.797Z,1.40
2023-03-05T00:55:04.746Z,1.10
2023-03-05T00:57:49.459Z,1.40
2023-03-05T01:00:34.311Z,1.40
2023-03-05T01:03:19.243Z,1.70
2023-03-05T01:06:10.238Z,1.33
2023-03-05T01:11:41.672Z,0.90
2023-03-05T01:14:27.708Z,0.95
2023-03-05T01:17:12.660Z,0.75
2023-03-05T01:19:57.586Z,1.23
2023-03-05T01:22:42.560Z,0.90
2023-03-05T01:25:27.639Z,0.80
2023-03-05T01:30:57.952Z,0.65
2023-03-05T01:33:42.358Z,1.15
2023-03-05T01:36:27.471Z,0.80
2023-03-05T01:39:12.853Z,0.82
2023-03-05T01:41:57.998Z,0.90
2023-03-05T01:45:06.596Z,1.20
2023-03-05T01:47:51.485Z,0.70
2023-03-05T01:50:36.267Z,0.55
2023-03-05T01:53:21.128Z,0.85
2023-03-05T01:56:06.260Z,1.00
2023-03-05T01:58:53.136Z,0.80
2023-03-05T02:01:42.264Z,0.82
2023-03-05T02:04:33.751Z,0.82
2023-03-05T02:07:18.746Z,1.10
2023-03-05T02:10:25.141Z,0.82
2023-03-05T02:13:13.788Z,1.75
2023-03-05T02:16:00.847Z,1.23
2023-03-05T02:18:45.687Z,0.82
2023-03-05T02:21:42.213Z,1.23
2023-03-05T02:24:36.538Z,1.13
2023-03-05T02:27:34.009Z,1.15
2023-03-05T02:30:19.690Z,0.80
2023-03-05T02:33:05.301Z,1.02
2023-03-05T02:35:50.462Z,1.02
2023-03-05T02:38:35.596Z,1.00
2023-03-05T02:41:20.371Z,0.82
2023-03-05T02:44:05.800Z,1.20
2023-03-05T02:49:36.842Z,0.90
2023-03-05T02:55:08.914Z,3.25
2023-03-05T02:57:54.039Z,2.80
2023-03-05T03:05:26.552Z,3.20
2023-03-05T03:08:11.397Z,3.08
2023-03-05T03:10:56.523Z,2.80
2023-03-05T03:13:41.872Z,2.38
2023-03-05T03:16:26.862Z,2.17
2023-03-05T03:19:11.934Z,2.58
2023-03-05T03:21:56.726Z,2.33
2023-03-05T03:24:42.614Z,2.22
2023-03-05T03:27:27.737Z,1.90
2023-03-05T03:30:13.561Z,1.83
2023-03-05T03:32:58.281Z,2.13
2023-03-05T03:35:43.128Z,2.15
2023-03-05T03:38:27.712Z,2.25
2023-03-05T03:41:12.272Z,1.80
2023-03-05T03:43:57.167Z,1.73
2023-03-05T03:46:41.743Z,1.98
2023-03-05T03:49:27.089Z,2.08
2023-03-05T03:52:11.717Z,1.92
2023-03-05T03:55:00.793Z,3.67
2023-03-05T03:57:45.655Z,3.63
2023-03-05T04:00:30.140Z,2.65
2023-03-05T04:03:14.909Z,3.58
2023-03-05T04:05:59.662Z,4.50
2023-03-05T04:08:44.445Z,3.25
2023-03-05T04:11:29.573Z,3.60
2023-03-05T04:14:14.653Z,2.22
2023-03-05T04:16:59.636Z,2.58
2023-03-05T04:19:44.787Z,2.90
2023-03-05T04:22:29.788Z,3.42
2023-03-05T04:25:14.675Z,2.53
2023-03-05T04:27:59.962Z,2.42
2023-03-05T04:30:44.638Z,3.13
2023-03-05T04:33:30.546Z,2.63
2023-03-05T04:36:15.490Z,2.33
2023-03-05T04:39:00.419Z,2.05
2023-03-05T04:41:44.982Z,2.03
2023-03-05T04:44:29.536Z,1.83
2023-03-05T04:47:15.191Z,1.75
2023-03-05T04:50:00.228Z,2.17
2023-03-05T04:52:45.306Z,2.42
2023-03-05T04:55:30.358Z,2.15
2023-03-05T04:58:15.289Z,2.25
2023-03-05T05:01:02.168Z,2.75
2023-03-05T05:03:47.572Z,2.97
2023-03-05T05:06:32.173Z,2.78
2023-03-05T05:09:17.571Z,2.42
2023-03-05T05:12:02.213Z,2.33
2023-03-05T05:14:47.128Z,2.38
2023-03-05T05:17:32.449Z,2.42
2023-03-05T05:20:17.234Z,2.55
2023-03-05T05:23:01.989Z,2.75
2023-03-05T05:25:55.950Z,3.15
2023-03-05T05:28:43.149Z,3.40
2023-03-05T05:31:27.940Z,3.75
2023-03-05T05:34:12.481Z,7.93
2023-03-05T05:36:57.486Z,7.05
2023-03-05T05:39:42.495Z,4.72
2023-03-05T05:42:28.818Z,3.33
2023-03-05T05:45:13.945Z,3.70
2023-03-05T05:47:58.403Z,3.85
2023-03-05T05:50:43.543Z,3.95
2023-03-05T05:53:28.106Z,4.57
2023-03-05T05:56:14.102Z,3.33
2023-03-05T05:58:59.227Z,3.17
2023-03-05T06:01:44.183Z,2.50
2023-03-05T06:04:29.605Z,4.78
2023-03-05T06:07:13.945Z,4.07
2023-03-05T06:09:58.973Z,3.42
2023-03-05T06:12:44.330Z,4.00
2023-03-05T06:15:29.359Z,4.65
2023-03-05T06:18:14.157Z,4.13
2023-03-05T06:21:05.150Z,3.83
2023-03-05T06:23:50.721Z,4.20
2023-03-05T06:26:35.444Z,2.97
2023-03-05T06:29:20.348Z,2.58
2023-03-05T06:32:05.275Z,3.20
2023-03-05T06:34:50.110Z,3.28
2023-03-05T06:37:34.850Z,4.05
2023-03-05T06:40:19.899Z,4.13
2023-03-05T06:45:49.439Z,3.38
2023-03-05T06:51:25.684Z,3.60
2023-03-05T06:54:13.705Z,3.13
2023-03-05T06:56:58.659Z,3.05
2023-03-05T06:59:43.832Z,3.08
2023-03-05T07:02:28.708Z,3.47
2023-03-05T07:05:13.612Z,5.03
2023-03-05T07:07:58.239Z,3.50
2023-03-05T07:10:43.757Z,4.25
2023-03-05T07:13:29.035Z,3.45
2023-03-05T07:16:20.200Z,5.13
2023-03-05T07:19:06.889Z,3.40
2023-03-05T07:21:51.938Z,3.92
2023-03-05T07:24:37.018Z,3.38
2023-03-05T07:27:24.824Z,2.92
2023-03-05T07:30:10.310Z,3.08
2023-03-05T07:32:55.052Z,3.60
2023-03-05T07:35:40.828Z,3.42
2023-03-05T07:38:25.941Z,4.43
2023-03-05T07:43:57.604Z,2.83
2023-03-05T07:46:43.265Z,2.97
2023-03-05T07:49:28.213Z,4.32
2023-03-05T07:52:13.070Z,4.30
2023-03-05T07:54:58.216Z,6.85
2023-03-05T07:57:42.825Z,5.85
2023-03-05T08:00:27.897Z,6.57
2023-03-05T08:03:12.390Z,3.80
2023-03-05T08:05:57.241Z,2.95
2023-03-05T08:08:42.068Z,3.00
2023-03-05T08:11:28.142Z,3.50
2023-03-05T08:14:12.901Z,2.70
2023-03-05T08:16:57.654Z,2.72
2023-03-05T08:19:42.345Z,2.58
2023-03-05T08:22:26.894Z,2.83
2023-03-05T08:25:12.646Z,2.88
2023-03-05T08:27:57.587Z,2.88
2023-03-05T08:33:27.027Z,3.70
2023-03-05T08:36:12.577Z,4.93
2023-03-05T08:38:59.003Z,3.40
2023-03-05T08:41:43.965Z,2.25
2023-03-05T08:44:29.210Z,2.72
2023-03-05T08:49:58.719Z,2.40
2023-03-05T08:52:44.005Z,2.88
2023-03-05T08:55:28.610Z,3.03
2023-03-05T08:58:14.096Z,3.22
2023-03-05T09:00:58.788Z,2.90
2023-03-05T09:06:29.012Z,2.47
2023-03-05T09:09:13.635Z,3.70
2023-03-05T09:11:59.517Z,3.05
2023-03-05T09:14:44.244Z,2.45
2023-03-05T09:17:29.298Z,2.65
2023-03-05T09:23:01.616Z,2.55
2023-03-05T09:25:46.615Z,3.42
2023-03-05T09:31:15.923Z,3.17
2023-03-05T09:36:45.290Z,2.92
2023-03-05T09:39:29.857Z,2.92
2023-03-05T09:42:36.102Z,3.28
2023-03-05T09:45:38.932Z,3.05
2023-03-05T09:48:46.047Z,2.50
2023-03-05T09:51:35.876Z,2.72
2023-03-05T09:54:40.689Z,2.95
2023-03-05T09:57:38.860Z,2.90
2023-03-05T10:00:40.913Z,2.30
2023-03-05T10:03:31.625Z,2.47
2023-03-05T10:06:26.029Z,3.15
2023-03-05T10:09:10.710Z,2.70
2023-03-05T10:11:55.401Z,2.83
2023-03-05T10:14:41.267Z,2.53
2023-03-05T10:17:38.262Z,2.70
2023-03-05T10:20:48.477Z,2.40
2023-03-05T10:24:03.216Z,2.80
2023-03-05T10:27:20.764Z,2.53
2023-03-05T10:30:37.823Z,2.25
2023-03-05T10:33:35.564Z,2.83
2023-03-05T10:36:46.149Z,2.85
2023-03-05T10:40:09.350Z,1.70
2023-03-05T10:42:53.886Z,1.95
2023-03-05T10:45:51.540Z,2.50
2023-03-05T10:48:38.441Z,1.95
2023-03-05T10:51:53.980Z,2.33
2023-03-05T10:54:42.082Z,2.22
2023-03-05T10:57:31.102Z,2.40
2023-03-05T11:00:25.380Z,2.30
2023-03-05T11:03:10.160Z,2.08
2023-03-05T11:06:00.982Z,2.60
2023-03-05T11:08:46.323Z,2.50
2023-03-05T11:11:32.571Z,2.42
2023-03-05T11:14:30.455Z,2.25
2023-03-05T11:17:31.746Z,1.83
2023-03-05T11:20:28.534Z,1.70
2023-03-05T11:23:13.516Z,1.83
2023-03-05T11:26:04.514Z,2.10
2023-03-05T11:28:52.515Z,2.17
2023-03-05T11:31:37.673Z,1.90
2023-03-05T11:34:29.573Z,2.10
2023-03-05T11:37:30.080Z,1.85
2023-03-05T11:40:22.289Z,2.00
2023-03-05T11:43:16.349Z,2.30
2023-03-05T11:46:02.688Z,1.70
2023-03-05T11:48:47.858Z,1.95
2023-03-05T11:51:42.936Z,2.50
2023-03-05T11:54:38.470Z,2.13
2023-03-05T11:57:25.347Z,1.95
2023-03-05T12:00:16.982Z,1.80
2023-03-05T12:03:13.677Z,1.67
2023-03-05T12:06:08.497Z,1.88
2023-03-05T12:08:59.756Z,2.15
2023-03-05T12:11:46.623Z,1.67
2023-03-05T12:15:00.691Z,2.10
2023-03-05T12:17:45.250Z,1.75
2023-03-05T12:20:46.628Z,1.75
2023-03-05T12:23:45.575Z,1.40
2023-03-05T12:26:52.022Z,1.27
2023-03-05T12:29:42.912Z,2.13
2023-03-05T12:32:34.592Z,1.80
2023-03-05T12:35:22.980Z,2.20
2023-03-05T12:38:28.561Z,1.58
2023-03-05T12:41:22.985Z,1.60
2023-03-05T12:44:08.039Z,2.78
2023-03-05T12:47:10.966Z,2.38
2023-03-05T12:49:56.635Z,2.15
2023-03-05T12:52:45.244Z,2.50
2023-03-05T12:56:24.141Z,2.53
2023-03-05T12:59:09.726Z,1.60
2023-03-05T13:01:58.286Z,1.92
2023-03-05T13:04:45.435Z,1.63
2023-03-05T13:07:30.540Z,2.60
2023-03-05T13:10:23.889Z,2.47
2023-03-05T13:13:14.700Z,1.60
2023-03-05T13:16:00.665Z,3.60
2023-03-05T13:18:48.312Z,2.25
2023-03-05T13:21:34.676Z,1.88
2023-03-05T13:24:19.783Z,1.65
2023-03-05T13:27:20.017Z,2.60
2023-03-05T13:30:05.998Z,1.40
2023-03-05T13:32:54.894Z,2.60
2023-03-05T13:35:45.025Z,1.98
2023-03-05T13:38:40.945Z,1.65
2023-03-05T13:41:27.483Z,2.67
2023-03-05T13:44:21.288Z,2.10
2023-03-05T13:47:18.992Z,2.20
2023-03-05T13:50:09.106Z,2.70
2023-03-05T13:52:54.216Z,3.60
2023-03-05T13:55:39.224Z,3.20
2023-03-05T13:58:44.051Z,2.47
2023-03-05T14:01:43.678Z,2.42
2023-03-05T14:04:42.428Z,2.15
2023-03-05T14:07:41.959Z,2.10
2023-03-05T14:10:34.001Z,2.22
2023-03-05T14:13:23.222Z,1.73
2023-03-05T14:16:13.608Z,1.98
2023-03-05T14:19:00.991Z,1.83
2023-03-05T14:21:50.208Z,1.98
2023-03-05T14:24:36.430Z,2.30
2023-03-05T14:27:21.825Z,2.67
2023-03-05T14:30:16.630Z,2.38
2023-03-05T14:33:02.430Z,1.90
2023-03-05T14:35:50.967Z,2.78
2023-03-05T14:38:40.001Z,3.13
2023-03-05T14:41:39.372Z,2.53
2023-03-05T14:44:25.700Z,2.38
2023-03-05T14:47:10.716Z,3.10
2023-03-05T14:52:40.182Z,3.22
2023-03-05T14:55:29.661Z,3.85
2023-03-05T14:58:17.762Z,3.30
2023-03-05T15:01:02.475Z,2.25
2023-03-05T15:06:38.783Z,3.10
2023-03-05T15:09:23.545Z,3.30
2023-03-05T15:12:11.549Z,2.85
2023-03-05T15:14:56.668Z,3.42
2023-03-05T15:17:46.608Z,3.00
2023-03-05T15:20:32.446Z,2.88
2023-03-05T15:23:17.725Z,4.18
2023-03-05T15:28:50.634Z,3.10
2023-03-05T15:31:38.124Z,3.47
2023-03-05T15:34:23.161Z,4.65
2023-03-05T15:37:08.778Z,3.90
2023-03-05T15:39:53.535Z,4.40
2023-03-05T15:45:23.852Z,3.85
2023-03-05T15:48:09.605Z,3.60
2023-03-05T15:50:54.616Z,2.85
2023-03-05T15:53:39.086Z,3.35
2023-03-05T15:56:23.798Z,3.63
2023-03-05T15:59:09.570Z,3.33
2023-03-05T16:01:54.145Z,3.75
2023-03-05T16:04:39.629Z,4.22
2023-03-05T16:07:25.137Z,4.35
2023-03-05T16:10:13.219Z,6.22
2023-03-05T16:13:14.011Z,4.60
2023-03-05T16:15:58.897Z,6.20
2023-03-05T16:18:47.168Z,5.85
2023-03-05T16:21:31.943Z,4.93
2023-03-05T16:24:16.977Z,5.50
2023-03-05T16:27:01.556Z,6.07
2023-03-05T16:32:32.051Z,5.68
2023-03-05T16:35:17.006Z,6.20
2023-03-05T16:38:02.465Z,4.80
2023-03-05T16:43:56.045Z,6.55
2023-03-05T16:46:42.709Z,6.43
2023-03-05T16:49:28.034Z,7.20
2023-03-05T16:55:05.294Z,6.03
2023-03-05T16:57:50.062Z,7.10
2023-03-05T17:00:35.400Z,6.70
2023-03-05T17:03:20.018Z,7.53
2023-03-05T17:08:59.474Z,6.65
2023-03-05T17:11:44.482Z,8.88
2023-03-05T17:17:14.398Z,8.45
2023-03-05T17:19:59.384Z,9.20
2023-03-05T17:22:44.424Z,8.10
2023-03-05T17:25:30.105Z,8.82
2023-03-05T17:28:15.113Z,7.93
2023-03-05T17:31:00.701Z,7.07
2023-03-05T17:33:45.540Z,7.30
2023-03-05T17:36:31.750Z,7.10
2023-03-05T17:39:18.385Z,7.22
2023-03-05T17:42:03.128Z,6.47
2023-03-05T17:47:34.926Z,6.95
2023-03-05T17:50:19.621Z,6.03
2023-03-05T17:53:04.931Z,5.50
2023-03-05T17:55:49.817Z,4.40
2023-03-05T18:01:25.630Z,4.70
2023-03-05T18:04:10.940Z,5.25
2023-03-05T18:06:55.640Z,5.82
2023-03-05T18:09:40.189Z,6.57
2023-03-05T18:12:24.714Z,6.53
2023-03-05T18:15:12.591Z,7.38
2023-03-05T18:17:58.317Z,8.65
2023-03-05T18:20:43.795Z,8.98
2023-03-05T18:23:28.413Z,8.40
2023-03-05T18:26:13.299Z,6.78
2023-03-05T18:28:57.660Z,6.35
2023-03-05T18:31:42.216Z,5.57
2023-03-05T18:34:27.460Z,5.38
2023-03-05T18:37:12.113Z,5.43
2023-03-05T18:42:42.238Z,3.80
2023-03-05T18:48:12.806Z,3.40
2023-03-05T18:50:57.891Z,3.30
2023-03-05T18:56:27.282Z,3.03
2023-03-05T19:01:56.731Z,2.88
2023-03-05T19:04:42.003Z,3.35
2023-03-05T19:07:26.809Z,3.50
2023-03-05T19:10:13.701Z,3.55
2023-03-05T19:13:42.794Z,2.90
2023-03-05T19:16:33.054Z,2.83
2023-03-05T19:19:21.614Z,3.70
2023-03-05T19:22:06.737Z,2.85
2023-03-05T19:24:53.379Z,3.15
2023-03-05T19:27:39.035Z,3.00
2023-03-05T19:30:24.197Z,2.90
2023-03-05T19:33:08.868Z,3.28
2023-03-05T19:38:39.000Z,3.08
2023-03-05T19:41:25.585Z,3.25
2023-03-05T19:44:12.214Z,3.67
2023-03-05T19:46:57.133Z,3.63
2023-03-05T19:49:41.496Z,3.63
2023-03-05T19:52:27.207Z,3.70
2023-03-05T19:55:12.468Z,3.25
2023-03-05T19:57:57.013Z,3.35
2023-03-05T20:00:41.602Z,3.28
2023-03-05T20:03:26.342Z,3.35
2023-03-05T20:06:11.004Z,3.35
2023-03-05T20:08:57.303Z,4.10
2023-03-05T20:11:41.961Z,3.80
2023-03-05T20:14:27.024Z,3.53
2023-03-05T20:17:11.613Z,3.80
2023-03-05T20:19:58.332Z,4.15
2023-03-05T20:22:45.029Z,4.10
2023-03-05T20:25:29.993Z,3.50
2023-03-05T20:28:14.952Z,3.13
2023-03-05T20:33:45.146Z,3.10
2023-03-05T20:36:29.903Z,3.55
2023-03-05T20:42:00.203Z,3.30
2023-03-05T20:47:45.546Z,3.30
2023-03-05T20:50:30.151Z,3.70
2023-03-05T20:56:00.571Z,3.42
2023-03-05T20:58:45.637Z,3.22
2023-03-05T21:04:15.805Z,2.42
2023-03-05T21:07:00.587Z,2.47
2023-03-05T21:09:45.687Z,3.20
2023-03-05T21:12:33.454Z,3.10
2023-03-05T21:15:21.033Z,4.18
2023-03-05T21:18:05.963Z,3.78
2023-03-05T21:20:50.705Z,3.72
2023-03-05T21:26:20.613Z,3.75
2023-03-05T21:29:05.469Z,3.60
2023-03-05T21:31:50.335Z,4.63
2023-03-05T21:37:19.802Z,3.00
2023-03-05T21:40:05.120Z,2.63
2023-03-05T21:42:49.971Z,3.13
2023-03-05T21:48:20.489Z,2.92
2023-03-05T21:51:38.002Z,2.97
2023-03-05T21:54:28.021Z,2.85
2023-03-05T21:57:13.494Z,3.38
2023-03-05T22:02:43.446Z,2.58
2023-03-05T22:08:12.836Z,2.83
2023-03-05T22:10:57.339Z,2.17
2023-03-05T22:13:42.292Z,3.47
2023-03-05T22:16:27.583Z,2.53
2023-03-05T22:19:12.122Z,2.55
2023-03-05T22:21:56.973Z,2.53
2023-03-05T22:27:26.185Z,2.78
2023-03-05T22:30:12.498Z,3.08
2023-03-05T22:32:58.153Z,3.45
2023-03-05T22:35:43.556Z,3.22
2023-03-05T22:38:28.807Z,3.05
2023-03-05T22:41:16.037Z,3.53
2023-03-05T22:44:01.053Z,3.90
2023-03-05T22:46:45.962Z,4.00
2023-03-05T22:49:31.582Z,3.50
2023-03-05T22:52:16.763Z,3.60
2023-03-05T22:55:02.768Z,3.80
2023-03-05T22:57:47.898Z,3.47
2023-03-05T23:00:32.468Z,3.78
2023-03-05T23:03:17.140Z,3.95
2023-03-05T23:06:02.175Z,4.05
2023-03-05T23:08:47.100Z,3.53
2023-03-05T23:14:16.582Z,3.53
2023-03-05T23:19:46.271Z,3.25
2023-03-05T23:25:15.974Z,3.08
2023-03-05T23:28:03.112Z,3.53
2023-03-05T23:30:48.206Z,3.92
2023-03-05T23:33:33.156Z,3.65
2023-03-05T23:39:04.055Z,3.53
2023-03-05T23:41:48.640Z,3.60
2023-03-05T23:47:18.169Z,3.80
2023-03-05T23:50:05.496Z,3.88
2023-03-05T23:52:50.875Z,4.07
2023-03-05T23:55:40.560Z,3.85
2023-03-05T23:58:25.871Z,4.47
